PWSweather.com
Personal Weather Stations
Station Observations
WATERF01
WaterfordIE

WaterfordIE

Lat: 52.2412507, Lon: -7.1414691

Elevation: 65

Station Type: Davis Vantage Vue

www.waterfordweather.com

High Low Average
Temperature 43.2°F6.2°C 33.3°F0.7°C 37.1°F2.8°C
Dew Point 37.7°F3.2°C 30.7°F-0.7°C 34.1°F1.2°C
Winds 10.4 mph 16.7 kmh Calm Calm 5.0 mph NW8.0 kmh NW
Wind Gusts 16.1 mph25.9 kmh -- 9.0 mph14.5 kmh
Humidity 93% 80% 89%
Pressure 30.48 in1032.2 mb 30.26 in1024.7 mb -
Precipitation 0.00 in0.0 mm - -
Hour Temp Dew Point Humidity Winds Wind Gusts Pressure Precip Precip Rate Daily Precip Total
12:00 AM 35.6°F2.0°C 33.2°F0.7°C 91% 6.9 mph NW11.1 kmh NW 11.5 mph18.5 kmh 30.26 in1024.7 mb - 0.00 in0.0 mm 0.00 in0.0 mm
12:10 AM 35.6°F2.0°C 33.5°F0.8°C 92% 6.9 mph NW11.1 kmh NW 9.2 mph14.8 kmh 30.27 in1025.1 mb - 0.00 in0.0 mm 0.00 in0.0 mm
12:20 AM 35.5°F1.9°C 33.4°F0.8°C 92% 6.9 mph NW11.1 kmh NW 11.5 mph18.5 kmh 30.27 in1025.1 mb - 0.00 in0.0 mm 0.00 in0.0 mm
12:30 AM 35.4°F1.9°C 33.3°F0.7°C 92% 6.9 mph NW11.1 kmh NW 9.2 mph14.8 kmh 30.27 in1025.1 mb - 0.00 in0.0 mm 0.00 in0.0 mm
12:40 AM 35.3°F1.8°C 33.2°F0.7°C 92% 5.8 mph NW9.3 kmh NW 11.5 mph18.5 kmh 30.27 in1025.1 mb - 0.00 in0.0 mm 0.00 in0.0 mm
12:50 AM 35.1°F1.7°C 33.0°F0.6°C 92% 2.3 mph NNW3.7 kmh NNW 5.8 mph9.3 kmh 30.28 in1025.4 mb - 0.00 in0.0 mm 0.00 in0.0 mm
01:00 AM 34.8°F1.6°C 32.7°F0.4°C 92% 3.5 mph NW5.6 kmh NW 6.9 mph11.1 kmh 30.28 in1025.4 mb - 0.00 in0.0 mm 0.00 in0.0 mm
01:10 AM 34.7°F1.5°C 32.9°F0.5°C 93% 2.3 mph NNW3.7 kmh NNW 5.8 mph9.3 kmh 30.28 in1025.4 mb - 0.00 in0.0 mm 0.00 in0.0 mm
01:20 AM 34.6°F1.4°C 32.5°F0.3°C 92% 3.5 mph NW5.6 kmh NW 6.9 mph11.1 kmh 30.28 in1025.4 mb - 0.00 in0.0 mm 0.00 in0.0 mm
01:30 AM 34.7°F1.5°C 32.6°F0.3°C 92% 6.9 mph NW11.1 kmh NW 9.2 mph14.8 kmh 30.28 in1025.4 mb - 0.00 in0.0 mm 0.00 in0.0 mm
01:40 AM 34.4°F1.3°C 32.3°F0.2°C 92% 5.8 mph NW9.3 kmh NW 8.1 mph13.0 kmh 30.29 in1025.7 mb - 0.00 in0.0 mm 0.00 in0.0 mm
01:50 AM 34.2°F1.2°C 32.1°F0.1°C 92% 5.8 mph NW9.3 kmh NW 8.1 mph13.0 kmh 30.29 in1025.7 mb - 0.00 in0.0 mm 0.00 in0.0 mm
02:00 AM 34.0°F1.1°C 31.9°F-0.1°C 92% 6.9 mph NW11.1 kmh NW 11.5 mph18.5 kmh 30.29 in1025.7 mb - 0.00 in0.0 mm 0.00 in0.0 mm
02:10 AM 34.0°F1.1°C 32.2°F0.1°C 93% 6.9 mph NW11.1 kmh NW 11.5 mph18.5 kmh 30.30 in1026.1 mb - 0.00 in0.0 mm 0.00 in0.0 mm
02:20 AM 34.1°F1.2°C 32.1°F0.1°C 92% 4.6 mph NW7.4 kmh NW 9.2 mph14.8 kmh 30.30 in1026.1 mb - 0.00 in0.0 mm 0.00 in0.0 mm
02:30 AM 34.2°F1.2°C 32.1°F0.1°C 92% 5.8 mph NW9.3 kmh NW 8.1 mph13.0 kmh 30.31 in1026.4 mb - 0.00 in0.0 mm 0.00 in0.0 mm
02:40 AM 34.1°F1.2°C 32.0°F0.0°C 92% 6.9 mph NW11.1 kmh NW 11.5 mph18.5 kmh 30.31 in1026.4 mb - 0.00 in0.0 mm 0.00 in0.0 mm
02:50 AM 34.0°F1.1°C 32.0°F0.0°C 92% 6.9 mph NW11.1 kmh NW 11.5 mph18.5 kmh 30.31 in1026.4 mb - 0.00 in0.0 mm 0.00 in0.0 mm
03:00 AM 34.3°F1.3°C 31.9°F-0.1°C 91% 5.8 mph NW9.3 kmh NW 8.1 mph13.0 kmh 30.32 in1026.8 mb - 0.00 in0.0 mm 0.00 in0.0 mm
03:10 AM 34.3°F1.3°C 31.9°F-0.1°C 91% 3.5 mph NW5.6 kmh NW 5.8 mph9.3 kmh 30.32 in1026.8 mb - 0.00 in0.0 mm 0.00 in0.0 mm
03:20 AM 34.3°F1.3°C 31.9°F-0.1°C 91% 6.9 mph NW11.1 kmh NW 8.1 mph13.0 kmh 30.32 in1026.8 mb - 0.00 in0.0 mm 0.00 in0.0 mm
03:30 AM 34.3°F1.3°C 31.9°F-0.1°C 91% 6.9 mph NW11.1 kmh NW 9.2 mph14.8 kmh 30.32 in1026.8 mb - 0.00 in0.0 mm 0.00 in0.0 mm
03:40 AM 34.3°F1.3°C 31.7°F-0.2°C 90% 4.6 mph NW7.4 kmh NW 9.2 mph14.8 kmh 30.33 in1027.1 mb - 0.00 in0.0 mm 0.00 in0.0 mm
03:50 AM 34.3°F1.3°C 31.7°F-0.2°C 90% 4.6 mph NW7.4 kmh NW 6.9 mph11.1 kmh 30.33 in1027.1 mb - 0.00 in0.0 mm 0.00 in0.0 mm
04:00 AM 34.1°F1.2°C 31.7°F-0.2°C 91% 5.8 mph NW9.3 kmh NW 11.5 mph18.5 kmh 30.33 in1027.1 mb - 0.00 in0.0 mm 0.00 in0.0 mm
04:10 AM 33.9°F1.1°C 31.6°F-0.2°C 91% 6.9 mph NW11.1 kmh NW 9.2 mph14.8 kmh 30.33 in1027.1 mb - 0.00 in0.0 mm 0.00 in0.0 mm
04:20 AM 33.7°F0.9°C 31.4°F-0.3°C 91% 5.8 mph NW9.3 kmh NW 11.5 mph18.5 kmh 30.33 in1027.1 mb - 0.00 in0.0 mm 0.00 in0.0 mm
04:30 AM 33.7°F0.9°C 31.4°F-0.3°C 91% 6.9 mph NNW11.1 kmh NNW 11.5 mph18.5 kmh 30.33 in1027.1 mb - 0.00 in0.0 mm 0.00 in0.0 mm
04:40 AM 33.9°F1.1°C 31.6°F-0.2°C 91% 8.1 mph NW13.0 kmh NW 11.5 mph18.5 kmh 30.33 in1027.1 mb - 0.00 in0.0 mm 0.00 in0.0 mm
04:50 AM 34.3°F1.3°C 31.7°F-0.2°C 90% 3.5 mph NNW5.6 kmh NNW 8.1 mph13.0 kmh 30.34 in1027.4 mb - 0.00 in0.0 mm 0.00 in0.0 mm
05:00 AM 34.2°F1.2°C 31.6°F-0.2°C 90% 3.5 mph NNW5.6 kmh NNW 8.1 mph13.0 kmh 30.35 in1027.8 mb - 0.00 in0.0 mm 0.00 in0.0 mm
05:10 AM 34.1°F1.2°C 31.5°F-0.3°C 90% 4.6 mph NW7.4 kmh NW 8.1 mph13.0 kmh 30.35 in1027.8 mb - 0.00 in0.0 mm 0.00 in0.0 mm
05:20 AM 33.9°F1.1°C 31.3°F-0.4°C 90% 6.9 mph NW11.1 kmh NW 8.1 mph13.0 kmh 30.35 in1027.8 mb - 0.00 in0.0 mm 0.00 in0.0 mm
05:30 AM 33.7°F0.9°C 31.1°F-0.5°C 90% 5.8 mph NW9.3 kmh NW 8.1 mph13.0 kmh 30.36 in1028.1 mb - 0.00 in0.0 mm 0.00 in0.0 mm
05:40 AM 33.5°F0.8°C 30.9°F-0.6°C 90% 5.8 mph NW9.3 kmh NW 9.2 mph14.8 kmh 30.36 in1028.1 mb - 0.00 in0.0 mm 0.00 in0.0 mm
05:50 AM 33.6°F0.9°C 31.0°F-0.6°C 90% 6.9 mph NNW11.1 kmh NNW 9.2 mph14.8 kmh 30.36 in1028.1 mb - 0.00 in0.0 mm 0.00 in0.0 mm
06:00 AM 33.8°F1.0°C 31.2°F-0.4°C 90% 5.8 mph NW9.3 kmh NW 10.4 mph16.7 kmh 30.36 in1028.1 mb - 0.00 in0.0 mm 0.00 in0.0 mm
06:10 AM 33.9°F1.1°C 31.3°F-0.4°C 90% 6.9 mph NW11.1 kmh NW 11.5 mph18.5 kmh 30.36 in1028.1 mb - 0.00 in0.0 mm 0.00 in0.0 mm
06:20 AM 33.7°F0.9°C 31.1°F-0.5°C 90% 9.2 mph NW14.8 kmh NW 12.7 mph20.4 kmh 30.37 in1028.4 mb - 0.00 in0.0 mm 0.00 in0.0 mm
06:30 AM 33.6°F0.9°C 31.0°F-0.6°C 90% 8.1 mph NW13.0 kmh NW 12.7 mph20.4 kmh 30.37 in1028.4 mb - 0.00 in0.0 mm 0.00 in0.0 mm
06:40 AM 33.5°F0.8°C 30.9°F-0.6°C 90% 8.1 mph NW13.0 kmh NW 12.7 mph20.4 kmh 30.37 in1028.4 mb - 0.00 in0.0 mm 0.00 in0.0 mm
06:50 AM 33.4°F0.8°C 30.8°F-0.7°C 90% 6.9 mph NW11.1 kmh NW 11.5 mph18.5 kmh 30.37 in1028.4 mb - 0.00 in0.0 mm 0.00 in0.0 mm
07:00 AM 33.3°F0.7°C 30.7°F-0.7°C 90% 10.4 mph NW16.7 kmh NW 13.8 mph22.2 kmh 30.37 in1028.4 mb - 0.00 in0.0 mm 0.00 in0.0 mm
07:10 AM 33.4°F0.8°C 30.8°F-0.7°C 90% 8.1 mph NW13.0 kmh NW 12.7 mph20.4 kmh 30.37 in1028.4 mb - 0.00 in0.0 mm 0.00 in0.0 mm
07:20 AM 33.3°F0.7°C 30.7°F-0.7°C 90% 5.8 mph NNW9.3 kmh NNW 9.2 mph14.8 kmh 30.39 in1029.1 mb - 0.00 in0.0 mm 0.00 in0.0 mm
07:30 AM 33.3°F0.7°C 30.7°F-0.7°C 90% 5.8 mph NW9.3 kmh NW 8.1 mph13.0 kmh 30.38 in1028.8 mb - 0.00 in0.0 mm 0.00 in0.0 mm
07:40 AM 33.4°F0.8°C 30.8°F-0.7°C 90% 5.8 mph NNW9.3 kmh NNW 10.4 mph16.7 kmh 30.39 in1029.1 mb - 0.00 in0.0 mm 0.00 in0.0 mm
07:50 AM 33.6°F0.9°C 31.0°F-0.6°C 90% 5.8 mph NW9.3 kmh NW 9.2 mph14.8 kmh 30.39 in1029.1 mb - 0.00 in0.0 mm 0.00 in0.0 mm
08:00 AM 33.7°F0.9°C 31.1°F-0.5°C 90% 5.8 mph NW9.3 kmh NW 8.1 mph13.0 kmh 30.39 in1029.1 mb - 0.00 in0.0 mm 0.00 in0.0 mm
08:10 AM 33.6°F0.9°C 31.0°F-0.6°C 90% 6.9 mph NNW11.1 kmh NNW 11.5 mph18.5 kmh 30.39 in1029.1 mb - 0.00 in0.0 mm 0.00 in0.0 mm
08:20 AM 33.6°F0.9°C 31.0°F-0.6°C 90% 9.2 mph NW14.8 kmh NW 12.7 mph20.4 kmh 30.39 in1029.1 mb - 0.00 in0.0 mm 0.00 in0.0 mm
08:30 AM 33.7°F0.9°C 31.1°F-0.5°C 90% 6.9 mph NW11.1 kmh NW 13.8 mph22.2 kmh 30.40 in1029.5 mb - 0.00 in0.0 mm 0.00 in0.0 mm
08:40 AM 33.7°F0.9°C 31.1°F-0.5°C 90% 8.1 mph NW13.0 kmh NW 10.4 mph16.7 kmh 30.40 in1029.5 mb - 0.00 in0.0 mm 0.00 in0.0 mm
08:50 AM 33.6°F0.9°C 31.0°F-0.6°C 90% 8.1 mph NW13.0 kmh NW 11.5 mph18.5 kmh 30.41 in1029.8 mb - 0.00 in0.0 mm 0.00 in0.0 mm
09:00 AM 33.5°F0.8°C 30.9°F-0.6°C 90% 6.9 mph NW11.1 kmh NW 11.5 mph18.5 kmh 30.41 in1029.8 mb - 0.00 in0.0 mm 0.00 in0.0 mm
09:10 AM 33.6°F0.9°C 31.0°F-0.6°C 90% 6.9 mph NNW11.1 kmh NNW 8.1 mph13.0 kmh 30.42 in1030.1 mb - 0.00 in0.0 mm 0.00 in0.0 mm
09:20 AM 33.8°F1.0°C 31.2°F-0.4°C 90% 4.6 mph NNW7.4 kmh NNW 9.2 mph14.8 kmh 30.42 in1030.1 mb - 0.00 in0.0 mm 0.00 in0.0 mm
09:30 AM 34.4°F1.3°C 31.8°F-0.1°C 90% 4.6 mph NNW7.4 kmh NNW 5.8 mph9.3 kmh 30.43 in1030.5 mb - 0.00 in0.0 mm 0.00 in0.0 mm
09:40 AM 34.9°F1.6°C 32.0°F0.0°C 89% 6.9 mph NW11.1 kmh NW 11.5 mph18.5 kmh 30.43 in1030.5 mb - 0.00 in0.0 mm 0.00 in0.0 mm
09:50 AM 35.2°F1.8°C 32.3°F0.2°C 89% 8.1 mph NW13.0 kmh NW 11.5 mph18.5 kmh 30.43 in1030.5 mb - 0.00 in0.0 mm 0.00 in0.0 mm
10:00 AM 35.6°F2.0°C 32.7°F0.4°C 89% 4.6 mph NW7.4 kmh NW 11.5 mph18.5 kmh 30.44 in1030.8 mb - 0.00 in0.0 mm 0.00 in0.0 mm
10:10 AM 35.8°F2.1°C 32.6°F0.3°C 88% 3.5 mph NW5.6 kmh NW 6.9 mph11.1 kmh 30.44 in1030.8 mb - 0.00 in0.0 mm 0.00 in0.0 mm
10:20 AM 36.1°F2.3°C 32.9°F0.5°C 88% 3.5 mph NW5.6 kmh NW 8.1 mph13.0 kmh 30.44 in1030.8 mb - 0.00 in0.0 mm 0.00 in0.0 mm
10:30 AM 36.4°F2.4°C 33.2°F0.7°C 88% 4.6 mph NW7.4 kmh NW 11.5 mph18.5 kmh 30.45 in1031.2 mb - 0.00 in0.0 mm 0.00 in0.0 mm
10:40 AM 36.8°F2.7°C 33.6°F0.9°C 88% 9.2 mph NW14.8 kmh NW 11.5 mph18.5 kmh 30.45 in1031.2 mb - 0.00 in0.0 mm 0.00 in0.0 mm
10:50 AM 37.0°F2.8°C 33.8°F1.0°C 88% 4.6 mph NW7.4 kmh NW 11.5 mph18.5 kmh 30.45 in1031.2 mb - 0.00 in0.0 mm 0.00 in0.0 mm
11:00 AM 37.4°F3.0°C 33.9°F1.1°C 87% 5.8 mph NW9.3 kmh NW 8.1 mph13.0 kmh 30.45 in1031.2 mb - 0.00 in0.0 mm 0.00 in0.0 mm
11:10 AM 37.9°F3.3°C 34.4°F1.3°C 87% 8.1 mph NW13.0 kmh NW 12.7 mph20.4 kmh 30.44 in1030.8 mb - 0.00 in0.0 mm 0.00 in0.0 mm
11:20 AM 38.1°F3.4°C 34.3°F1.3°C 86% 9.2 mph NW14.8 kmh NW 11.5 mph18.5 kmh 30.44 in1030.8 mb - 0.00 in0.0 mm 0.00 in0.0 mm
11:30 AM 38.2°F3.4°C 34.4°F1.3°C 86% 8.1 mph NW13.0 kmh NW 12.7 mph20.4 kmh 30.44 in1030.8 mb - 0.00 in0.0 mm 0.00 in0.0 mm
11:40 AM 38.7°F3.7°C 34.9°F1.6°C 86% 8.1 mph NW13.0 kmh NW 11.5 mph18.5 kmh 30.44 in1030.8 mb - 0.00 in0.0 mm 0.00 in0.0 mm
11:50 AM 39.1°F3.9°C 35.3°F1.8°C 86% 10.4 mph NW16.7 kmh NW 13.8 mph22.2 kmh 30.44 in1030.8 mb - 0.00 in0.0 mm 0.00 in0.0 mm
12:00 PM 39.5°F4.2°C 35.7°F2.1°C 86% 6.9 mph NW11.1 kmh NW 13.8 mph22.2 kmh 30.45 in1031.2 mb - 0.00 in0.0 mm 0.00 in0.0 mm
12:10 PM 39.9°F4.4°C 35.7°F2.1°C 85% 10.4 mph NW16.7 kmh NW 16.1 mph25.9 kmh 30.44 in1030.8 mb - 0.00 in0.0 mm 0.00 in0.0 mm
12:20 PM 40.2°F4.6°C 35.8°F2.1°C 84% 10.4 mph NW16.7 kmh NW 16.1 mph25.9 kmh 30.44 in1030.8 mb - 0.00 in0.0 mm 0.00 in0.0 mm
12:30 PM 40.5°F4.7°C 36.0°F2.2°C 84% 5.8 mph NW9.3 kmh NW 8.1 mph13.0 kmh 30.45 in1031.2 mb - 0.00 in0.0 mm 0.00 in0.0 mm
12:40 PM 40.9°F4.9°C 36.4°F2.4°C 84% 8.1 mph NW13.0 kmh NW 11.5 mph18.5 kmh 30.45 in1031.2 mb - 0.00 in0.0 mm 0.00 in0.0 mm
12:50 PM 41.1°F5.1°C 36.6°F2.6°C 84% 4.6 mph NNW7.4 kmh NNW 6.9 mph11.1 kmh 30.44 in1030.8 mb - 0.00 in0.0 mm 0.00 in0.0 mm
01:00 PM 41.3°F5.2°C 36.5°F2.5°C 83% 3.5 mph NW5.6 kmh NW 6.9 mph11.1 kmh 30.45 in1031.2 mb - 0.00 in0.0 mm 0.00 in0.0 mm
01:10 PM 41.6°F5.3°C 36.8°F2.7°C 83% 4.6 mph NNW7.4 kmh NNW 11.5 mph18.5 kmh 30.44 in1030.8 mb - 0.00 in0.0 mm 0.00 in0.0 mm
01:20 PM 41.9°F5.5°C 36.8°F2.7°C 82% 4.6 mph NNW7.4 kmh NNW 8.1 mph13.0 kmh 30.44 in1030.8 mb - 0.00 in0.0 mm 0.00 in0.0 mm
01:30 PM 42.3°F5.7°C 37.2°F2.9°C 82% 2.3 mph NW3.7 kmh NW 5.8 mph9.3 kmh 30.44 in1030.8 mb - 0.00 in0.0 mm 0.00 in0.0 mm
01:40 PM 42.5°F5.8°C 37.1°F2.8°C 81% 2.3 mph N3.7 kmh N 4.6 mph7.4 kmh 30.44 in1030.8 mb - 0.00 in0.0 mm 0.00 in0.0 mm
01:50 PM 42.9°F6.1°C 37.5°F3.1°C 81% 3.5 mph NNW5.6 kmh NNW 5.8 mph9.3 kmh 30.44 in1030.8 mb - 0.00 in0.0 mm 0.00 in0.0 mm
02:00 PM 43.2°F6.2°C 37.7°F3.2°C 81% 2.3 mph NW3.7 kmh NW 5.8 mph9.3 kmh 30.44 in1030.8 mb - 0.00 in0.0 mm 0.00 in0.0 mm
02:10 PM 43.1°F6.2°C 37.3°F2.9°C 80% 3.5 mph NNW5.6 kmh NNW 10.4 mph16.7 kmh 30.44 in1030.8 mb - 0.00 in0.0 mm 0.00 in0.0 mm
02:20 PM 43.1°F6.2°C 37.3°F2.9°C 80% 4.6 mph NW7.4 kmh NW 8.1 mph13.0 kmh 30.44 in1030.8 mb - 0.00 in0.0 mm 0.00 in0.0 mm
02:30 PM 43.1°F6.2°C 37.3°F2.9°C 80% 4.6 mph NW7.4 kmh NW 8.1 mph13.0 kmh 30.45 in1031.2 mb - 0.00 in0.0 mm 0.00 in0.0 mm
02:40 PM 42.8°F6.0°C 37.0°F2.8°C 80% 5.8 mph NW9.3 kmh NW 8.1 mph13.0 kmh 30.45 in1031.2 mb - 0.00 in0.0 mm 0.00 in0.0 mm
02:50 PM 42.4°F5.8°C 36.7°F2.6°C 80% 6.9 mph NW11.1 kmh NW 13.8 mph22.2 kmh 30.45 in1031.2 mb - 0.00 in0.0 mm 0.00 in0.0 mm
03:00 PM 42.1°F5.6°C 36.7°F2.6°C 81% 4.6 mph NW7.4 kmh NW 9.2 mph14.8 kmh 30.45 in1031.2 mb - 0.00 in0.0 mm 0.00 in0.0 mm
03:10 PM 41.9°F5.5°C 37.1°F2.8°C 83% 4.6 mph NW7.4 kmh NW 5.8 mph9.3 kmh 30.45 in1031.2 mb - 0.00 in0.0 mm 0.00 in0.0 mm
03:20 PM 41.7°F5.4°C 37.2°F2.9°C 84% 3.5 mph NNW5.6 kmh NNW 5.8 mph9.3 kmh 30.45 in1031.2 mb - 0.00 in0.0 mm 0.00 in0.0 mm
03:30 PM 41.6°F5.3°C 37.4°F3.0°C 85% 5.8 mph NNW9.3 kmh NNW 9.2 mph14.8 kmh 30.45 in1031.2 mb - 0.00 in0.0 mm 0.00 in0.0 mm
03:40 PM 41.6°F5.3°C 37.4°F3.0°C 85% 5.8 mph NW9.3 kmh NW 11.5 mph18.5 kmh 30.45 in1031.2 mb - 0.00 in0.0 mm 0.00 in0.0 mm
03:50 PM 41.5°F5.3°C 37.3°F2.9°C 85% 5.8 mph NW9.3 kmh NW 9.2 mph14.8 kmh 30.45 in1031.2 mb - 0.00 in0.0 mm 0.00 in0.0 mm
04:00 PM 41.3°F5.2°C 37.1°F2.8°C 85% 2.3 mph N3.7 kmh N 4.6 mph7.4 kmh 30.45 in1031.2 mb - 0.00 in0.0 mm 0.00 in0.0 mm
04:10 PM 40.9°F4.9°C 37.0°F2.8°C 86% 3.5 mph NNW5.6 kmh NNW 5.8 mph9.3 kmh 30.45 in1031.2 mb - 0.00 in0.0 mm 0.00 in0.0 mm
04:20 PM 40.6°F4.8°C 37.0°F2.8°C 87% 1.2 mph NW1.9 kmh NW 4.6 mph7.4 kmh 30.45 in1031.2 mb - 0.00 in0.0 mm 0.00 in0.0 mm
04:30 PM 40.3°F4.6°C 37.0°F2.8°C 88% Calm Calm 2.3 mph3.7 kmh 30.46 in1031.5 mb - 0.00 in0.0 mm 0.00 in0.0 mm
04:40 PM 40.1°F4.5°C 36.8°F2.7°C 88% 1.2 mph NW1.9 kmh NW 2.3 mph3.7 kmh 30.46 in1031.5 mb - 0.00 in0.0 mm 0.00 in0.0 mm
04:50 PM 39.6°F4.2°C 36.4°F2.4°C 88% 1.2 mph NW1.9 kmh NW 2.3 mph3.7 kmh 30.46 in1031.5 mb - 0.00 in0.0 mm 0.00 in0.0 mm
05:00 PM 39.1°F3.9°C 36.1°F2.3°C 89% 2.3 mph NW3.7 kmh NW 5.8 mph9.3 kmh 30.46 in1031.5 mb - 0.00 in0.0 mm 0.00 in0.0 mm
05:10 PM 38.8°F3.8°C 35.9°F2.2°C 89% 3.5 mph NW5.6 kmh NW 8.1 mph13.0 kmh 30.46 in1031.5 mb - 0.00 in0.0 mm 0.00 in0.0 mm
05:20 PM 38.7°F3.7°C 35.7°F2.1°C 89% 4.6 mph NW7.4 kmh NW 5.8 mph9.3 kmh 30.47 in1031.8 mb - 0.00 in0.0 mm 0.00 in0.0 mm
05:30 PM 38.5°F3.6°C 35.5°F1.9°C 89% 5.8 mph NW9.3 kmh NW 6.9 mph11.1 kmh 30.46 in1031.5 mb - 0.00 in0.0 mm 0.00 in0.0 mm
05:40 PM 38.4°F3.6°C 35.4°F1.9°C 89% 2.3 mph NW3.7 kmh NW 9.2 mph14.8 kmh 30.47 in1031.8 mb - 0.00 in0.0 mm 0.00 in0.0 mm
05:50 PM 38.1°F3.4°C 35.1°F1.7°C 89% 5.8 mph NW9.3 kmh NW 5.8 mph9.3 kmh 30.46 in1031.5 mb - 0.00 in0.0 mm 0.00 in0.0 mm
06:00 PM 37.7°F3.2°C 34.8°F1.6°C 89% 5.8 mph NW9.3 kmh NW 9.2 mph14.8 kmh 30.46 in1031.5 mb - 0.00 in0.0 mm 0.00 in0.0 mm
06:10 PM 37.7°F3.2°C 34.8°F1.6°C 89% 4.6 mph NW7.4 kmh NW 5.8 mph9.3 kmh 30.47 in1031.8 mb - 0.00 in0.0 mm 0.00 in0.0 mm
06:20 PM 37.7°F3.2°C 34.7°F1.5°C 89% 3.5 mph NW5.6 kmh NW 5.8 mph9.3 kmh 30.47 in1031.8 mb - 0.00 in0.0 mm 0.00 in0.0 mm
06:30 PM 37.3°F2.9°C 34.4°F1.3°C 89% 1.2 mph NNW1.9 kmh NNW 5.8 mph9.3 kmh 30.47 in1031.8 mb - 0.00 in0.0 mm 0.00 in0.0 mm
06:40 PM 36.8°F2.7°C 34.2°F1.2°C 90% Calm Calm 2.3 mph3.7 kmh 30.47 in1031.8 mb - 0.00 in0.0 mm 0.00 in0.0 mm
06:50 PM 36.4°F2.4°C 33.7°F0.9°C 90% Calm Calm -- 30.47 in1031.8 mb - 0.00 in0.0 mm 0.00 in0.0 mm
07:00 PM 36.0°F2.2°C 33.6°F0.9°C 91% Calm Calm 2.3 mph3.7 kmh 30.48 in1032.2 mb - 0.00 in0.0 mm 0.00 in0.0 mm
07:10 PM 35.9°F2.2°C 33.8°F1.0°C 92% Calm Calm -- 30.48 in1032.2 mb - 0.00 in0.0 mm 0.00 in0.0 mm
07:20 PM 35.8°F2.1°C 33.7°F0.9°C 92% Calm Calm -- 30.48 in1032.2 mb - 0.00 in0.0 mm 0.00 in0.0 mm
07:30 PM 36.5°F2.5°C 34.4°F1.3°C 92% 5.8 mph NW9.3 kmh NW 9.2 mph14.8 kmh 30.48 in1032.2 mb - 0.00 in0.0 mm 0.00 in0.0 mm
07:40 PM 37.3°F2.9°C 34.9°F1.6°C 91% 8.1 mph NW13.0 kmh NW 12.7 mph20.4 kmh 30.48 in1032.2 mb - 0.00 in0.0 mm 0.00 in0.0 mm
07:50 PM 37.7°F3.2°C 35.3°F1.8°C 91% 5.8 mph NW9.3 kmh NW 11.5 mph18.5 kmh 30.48 in1032.2 mb - 0.00 in0.0 mm 0.00 in0.0 mm
08:00 PM 38.0°F3.3°C 35.7°F2.1°C 91% 5.8 mph NW9.3 kmh NW 11.5 mph18.5 kmh 30.47 in1031.8 mb - 0.00 in0.0 mm 0.00 in0.0 mm
08:10 PM 38.4°F3.6°C 35.7°F2.1°C 90% 6.9 mph NW11.1 kmh NW 9.2 mph14.8 kmh 30.48 in1032.2 mb - 0.00 in0.0 mm 0.00 in0.0 mm
08:20 PM 38.6°F3.7°C 35.9°F2.2°C 90% 5.8 mph NW9.3 kmh NW 8.1 mph13.0 kmh 30.48 in1032.2 mb - 0.00 in0.0 mm 0.00 in0.0 mm
08:30 PM 38.7°F3.7°C 36.0°F2.2°C 90% 6.9 mph NW11.1 kmh NW 11.5 mph18.5 kmh 30.48 in1032.2 mb - 0.00 in0.0 mm 0.00 in0.0 mm
08:40 PM 39.0°F3.9°C 36.3°F2.4°C 90% 5.8 mph NW9.3 kmh NW 8.1 mph13.0 kmh 30.48 in1032.2 mb - 0.00 in0.0 mm 0.00 in0.0 mm
08:50 PM 39.0°F3.9°C 36.3°F2.4°C 90% 5.8 mph NW9.3 kmh NW 9.2 mph14.8 kmh 30.48 in1032.2 mb - 0.00 in0.0 mm 0.00 in0.0 mm
09:00 PM 38.9°F3.8°C 36.2°F2.3°C 90% 3.5 mph NW5.6 kmh NW 8.1 mph13.0 kmh 30.48 in1032.2 mb - 0.00 in0.0 mm 0.00 in0.0 mm
09:10 PM 38.7°F3.7°C 36.0°F2.2°C 90% 4.6 mph NW7.4 kmh NW 8.1 mph13.0 kmh 30.48 in1032.2 mb - 0.00 in0.0 mm 0.00 in0.0 mm
09:20 PM 38.5°F3.6°C 36.1°F2.3°C 91% 3.5 mph NW5.6 kmh NW 5.8 mph9.3 kmh 30.48 in1032.2 mb - 0.00 in0.0 mm 0.00 in0.0 mm
09:30 PM 38.4°F3.6°C 36.0°F2.2°C 91% 4.6 mph NW7.4 kmh NW 6.9 mph11.1 kmh 30.47 in1031.8 mb - 0.00 in0.0 mm 0.00 in0.0 mm
09:40 PM 38.2°F3.4°C 36.1°F2.3°C 92% 2.3 mph NW3.7 kmh NW 6.9 mph11.1 kmh 30.48 in1032.2 mb - 0.00 in0.0 mm 0.00 in0.0 mm
09:50 PM 38.1°F3.4°C 36.0°F2.2°C 92% 4.6 mph NW7.4 kmh NW 6.9 mph11.1 kmh 30.47 in1031.8 mb - 0.00 in0.0 mm 0.00 in0.0 mm
10:00 PM 38.3°F3.5°C 36.2°F2.3°C 92% 3.5 mph NW5.6 kmh NW 5.8 mph9.3 kmh 30.47 in1031.8 mb - 0.00 in0.0 mm 0.00 in0.0 mm
10:10 PM 38.5°F3.6°C 36.4°F2.4°C 92% 3.5 mph NW5.6 kmh NW 8.1 mph13.0 kmh 30.48 in1032.2 mb - 0.00 in0.0 mm 0.00 in0.0 mm
10:20 PM 38.8°F3.8°C 36.7°F2.6°C 92% 4.6 mph NNW7.4 kmh NNW 8.1 mph13.0 kmh 30.48 in1032.2 mb - 0.00 in0.0 mm 0.00 in0.0 mm
10:30 PM 38.7°F3.7°C 36.6°F2.6°C 92% 2.3 mph NNW3.7 kmh NNW 6.9 mph11.1 kmh 30.48 in1032.2 mb - 0.00 in0.0 mm 0.00 in0.0 mm
10:40 PM 38.6°F3.7°C 36.5°F2.5°C 92% 3.5 mph NW5.6 kmh NW 5.8 mph9.3 kmh 30.48 in1032.2 mb - 0.00 in0.0 mm 0.00 in0.0 mm
10:50 PM 38.7°F3.7°C 36.6°F2.6°C 92% 2.3 mph NNW3.7 kmh NNW 5.8 mph9.3 kmh 30.48 in1032.2 mb - 0.00 in0.0 mm 0.00 in0.0 mm
11:00 PM 38.9°F3.8°C 36.8°F2.7°C 92% 5.8 mph NW9.3 kmh NW 8.1 mph13.0 kmh 30.47 in1031.8 mb - 0.00 in0.0 mm 0.00 in0.0 mm
11:10 PM 39.1°F3.9°C 37.0°F2.8°C 92% 4.6 mph NW7.4 kmh NW 8.1 mph13.0 kmh 30.47 in1031.8 mb - 0.00 in0.0 mm 0.00 in0.0 mm
11:20 PM 39.3°F4.1°C 37.2°F2.9°C 92% 4.6 mph NW7.4 kmh NW 8.1 mph13.0 kmh 30.47 in1031.8 mb - 0.00 in0.0 mm 0.00 in0.0 mm
11:30 PM 39.4°F4.1°C 37.3°F2.9°C 92% 5.8 mph NW9.3 kmh NW 9.2 mph14.8 kmh 30.48 in1032.2 mb - 0.00 in0.0 mm 0.00 in0.0 mm
11:40 PM 39.5°F4.2°C 37.4°F3.0°C 92% 4.6 mph NW7.4 kmh NW 8.1 mph13.0 kmh 30.47 in1031.8 mb - 0.00 in0.0 mm 0.00 in0.0 mm
11:50 PM 39.6°F4.2°C 37.5°F3.1°C 92% 4.6 mph WNW7.4 kmh WNW 6.9 mph11.1 kmh 30.48 in1032.2 mb - 0.00 in0.0 mm 0.00 in0.0 mm